sensor_id;sensor_type;location;lat;lon;timestamp;P1;durP1;ratioP1;P2;durP2;ratioP2
78781;SDS011;68126;55.748;48.742;2023-04-06T00:04:23;8.70;;;2.00;;
78781;SDS011;68126;55.748;48.742;2023-04-06T00:09:48;11.53;;;2.42;;
78781;SDS011;68126;55.748;48.742;2023-04-06T00:15:13;12.03;;;2.55;;
78781;SDS011;68126;55.748;48.742;2023-04-06T00:20:37;9.10;;;2.65;;
78781;SDS011;68126;55.748;48.742;2023-04-06T00:26:02;10.15;;;3.20;;
78781;SDS011;68126;55.748;48.742;2023-04-06T00:31:27;7.37;;;2.22;;
78781;SDS011;68126;55.748;48.742;2023-04-06T00:36:51;9.45;;;2.08;;
78781;SDS011;68126;55.748;48.742;2023-04-06T00:42:16;5.05;;;2.25;;
78781;SDS011;68126;55.748;48.742;2023-04-06T00:47:42;6.67;;;2.20;;
78781;SDS011;68126;55.748;48.742;2023-04-06T00:53:07;5.03;;;1.70;;
78781;SDS011;68126;55.748;48.742;2023-04-06T00:58:31;10.23;;;2.95;;
78781;SDS011;68126;55.748;48.742;2023-04-06T01:03:58;4.35;;;1.82;;
78781;SDS011;68126;55.748;48.742;2023-04-06T01:09:24;8.00;;;1.95;;
78781;SDS011;68126;55.748;48.742;2023-04-06T01:14:49;8.53;;;2.33;;
78781;SDS011;68126;55.748;48.742;2023-04-06T01:20:13;4.80;;;2.22;;
78781;SDS011;68126;55.748;48.742;2023-04-06T01:25:38;12.98;;;2.80;;
78781;SDS011;68126;55.748;48.742;2023-04-06T01:31:03;5.55;;;2.35;;
78781;SDS011;68126;55.748;48.742;2023-04-06T01:36:28;5.42;;;2.02;;
78781;SDS011;68126;55.748;48.742;2023-04-06T01:41:53;9.15;;;2.27;;
78781;SDS011;68126;55.748;48.742;2023-04-06T01:47:17;7.47;;;3.65;;
78781;SDS011;68126;55.748;48.742;2023-04-06T01:52:42;5.85;;;1.90;;
78781;SDS011;68126;55.748;48.742;2023-04-06T01:58:07;4.70;;;2.47;;
78781;SDS011;68126;55.748;48.742;2023-04-06T02:03:32;9.33;;;1.87;;
78781;SDS011;68126;55.748;48.742;2023-04-06T02:08:57;5.35;;;2.22;;
78781;SDS011;68126;55.748;48.742;2023-04-06T02:14:56;3.10;;;1.45;;
78781;SDS011;68126;55.748;48.742;2023-04-06T02:19:50;6.60;;;2.58;;
78781;SDS011;68126;55.748;48.742;2023-04-06T02:25:15;3.77;;;1.47;;
78781;SDS011;68126;55.748;48.742;2023-04-06T02:30:39;7.90;;;1.75;;
78781;SDS011;68126;55.748;48.742;2023-04-06T02:36:04;5.20;;;2.02;;
78781;SDS011;68126;55.748;48.742;2023-04-06T02:41:29;4.12;;;1.60;;
78781;SDS011;68126;55.748;48.742;2023-04-06T02:46:55;7.12;;;2.25;;
78781;SDS011;68126;55.748;48.742;2023-04-06T02:52:20;7.05;;;2.47;;
78781;SDS011;68126;55.748;48.742;2023-04-06T02:57:44;4.83;;;2.37;;
78781;SDS011;68126;55.748;48.742;2023-04-06T03:03:09;4.87;;;3.02;;
78781;SDS011;68126;55.748;48.742;2023-04-06T03:08:34;6.10;;;2.05;;
78781;SDS011;68126;55.748;48.742;2023-04-06T03:13:58;9.33;;;2.15;;
78781;SDS011;68126;55.748;48.742;2023-04-06T03:19:23;4.22;;;1.92;;
78781;SDS011;68126;55.748;48.742;2023-04-06T03:24:48;4.47;;;1.87;;
78781;SDS011;68126;55.748;48.742;2023-04-06T03:30:13;5.83;;;2.55;;
78781;SDS011;68126;55.748;48.742;2023-04-06T03:35:39;3.75;;;1.82;;
78781;SDS011;68126;55.748;48.742;2023-04-06T03:41:04;4.28;;;3.05;;
78781;SDS011;68126;55.748;48.742;2023-04-06T03:46:29;3.17;;;1.55;;
78781;SDS011;68126;55.748;48.742;2023-04-06T03:51:53;5.40;;;2.83;;
78781;SDS011;68126;55.748;48.742;2023-04-06T03:57:18;4.10;;;1.98;;
78781;SDS011;68126;55.748;48.742;2023-04-06T04:02:43;5.90;;;3.15;;
78781;SDS011;68126;55.748;48.742;2023-04-06T04:08:08;2.25;;;1.77;;
78781;SDS011;68126;55.748;48.742;2023-04-06T04:13:32;8.30;;;2.30;;
78781;SDS011;68126;55.748;48.742;2023-04-06T04:18:59;4.42;;;2.75;;
78781;SDS011;68126;55.748;48.742;2023-04-06T04:24:24;7.70;;;2.67;;
78781;SDS011;68126;55.748;48.742;2023-04-06T04:29:48;4.72;;;1.82;;
78781;SDS011;68126;55.748;48.742;2023-04-06T04:35:13;4.83;;;1.52;;
78781;SDS011;68126;55.748;48.742;2023-04-06T04:40:40;4.80;;;1.42;;
78781;SDS011;68126;55.748;48.742;2023-04-06T04:46:05;6.20;;;2.15;;
78781;SDS011;68126;55.748;48.742;2023-04-06T04:51:29;9.35;;;1.95;;
78781;SDS011;68126;55.748;48.742;2023-04-06T04:56:54;5.80;;;1.95;;
78781;SDS011;68126;55.748;48.742;2023-04-06T05:02:19;8.40;;;2.17;;
78781;SDS011;68126;55.748;48.742;2023-04-06T05:07:44;3.98;;;1.52;;
78781;SDS011;68126;55.748;48.742;2023-04-06T05:13:09;6.78;;;1.45;;
78781;SDS011;68126;55.748;48.742;2023-04-06T05:18:33;7.70;;;2.22;;
78781;SDS011;68126;55.748;48.742;2023-04-06T05:23:58;7.47;;;1.98;;
78781;SDS011;68126;55.748;48.742;2023-04-06T05:29:24;7.72;;;2.00;;
78781;SDS011;68126;55.748;48.742;2023-04-06T05:34:49;11.48;;;1.52;;
78781;SDS011;68126;55.748;48.742;2023-04-06T05:40:13;6.58;;;1.82;;
78781;SDS011;68126;55.748;48.742;2023-04-06T05:46:00;9.35;;;2.35;;
78781;SDS011;68126;55.748;48.742;2023-04-06T05:51:25;5.35;;;1.87;;
78781;SDS011;68126;55.748;48.742;2023-04-06T05:56:49;7.83;;;2.20;;
78781;SDS011;68126;55.748;48.742;2023-04-06T06:02:48;7.72;;;2.33;;
78781;SDS011;68126;55.748;48.742;2023-04-06T06:07:41;8.88;;;1.85;;
78781;SDS011;68126;55.748;48.742;2023-04-06T06:18:32;5.97;;;1.92;;
78781;SDS011;68126;55.748;48.742;2023-04-06T06:23:57;4.10;;;1.25;;
78781;SDS011;68126;55.748;48.742;2023-04-06T06:29:21;6.47;;;2.10;;
78781;SDS011;68126;55.748;48.742;2023-04-06T06:34:46;6.58;;;1.90;;
78781;SDS011;68126;55.748;48.742;2023-04-06T06:40:12;15.30;;;1.52;;
78781;SDS011;68126;55.748;48.742;2023-04-06T06:45:38;5.78;;;1.85;;
78781;SDS011;68126;55.748;48.742;2023-04-06T06:51:03;5.20;;;1.25;;
78781;SDS011;68126;55.748;48.742;2023-04-06T06:56:28;17.02;;;3.25;;
78781;SDS011;68126;55.748;48.742;2023-04-06T07:01:53;9.83;;;2.02;;
78781;SDS011;68126;55.748;48.742;2023-04-06T07:07:17;3.05;;;1.65;;
78781;SDS011;68126;55.748;48.742;2023-04-06T07:12:42;8.05;;;1.35;;
78781;SDS011;68126;55.748;48.742;2023-04-06T07:18:08;6.53;;;2.30;;
78781;SDS011;68126;55.748;48.742;2023-04-06T07:23:33;5.62;;;2.02;;
78781;SDS011;68126;55.748;48.742;2023-04-06T07:28:59;3.30;;;2.12;;
78781;SDS011;68126;55.748;48.742;2023-04-06T07:34:24;8.23;;;2.12;;
78781;SDS011;68126;55.748;48.742;2023-04-06T07:40:09;9.33;;;2.15;;
78781;SDS011;68126;55.748;48.742;2023-04-06T07:45:40;7.40;;;1.65;;
78781;SDS011;68126;55.748;48.742;2023-04-06T07:51:46;5.58;;;1.98;;
78781;SDS011;68126;55.748;48.742;2023-04-06T07:57:12;2.87;;;1.42;;
78781;SDS011;68126;55.748;48.742;2023-04-06T08:47:53;5.08;;;1.62;;
78781;SDS011;68126;55.748;48.742;2023-04-06T08:58:44;3.95;;;1.50;;
78781;SDS011;68126;55.748;48.742;2023-04-06T09:04:09;6.12;;;1.67;;
78781;SDS011;68126;55.748;48.742;2023-04-06T09:09:35;4.25;;;1.05;;
78781;SDS011;68126;55.748;48.742;2023-04-06T09:15:01;8.25;;;1.75;;
78781;SDS011;68126;55.748;48.742;2023-04-06T09:20:27;2.10;;;1.05;;
78781;SDS011;68126;55.748;48.742;2023-04-06T09:25:51;7.75;;;1.00;;
78781;SDS011;68126;55.748;48.742;2023-04-06T09:31:16;4.80;;;0.72;;
78781;SDS011;68126;55.748;48.742;2023-04-06T09:36:42;2.20;;;0.90;;
78781;SDS011;68126;55.748;48.742;2023-04-06T09:42:06;4.67;;;0.88;;
78781;SDS011;68126;55.748;48.742;2023-04-06T09:47:30;4.47;;;0.95;;
78781;SDS011;68126;55.748;48.742;2023-04-06T09:52:55;3.40;;;0.60;;
78781;SDS011;68126;55.748;48.742;2023-04-06T09:58:21;1.57;;;0.62;;
78781;SDS011;68126;55.748;48.742;2023-04-06T10:14:58;4.72;;;0.70;;
78781;SDS011;68126;55.748;48.742;2023-04-06T10:20:56;4.05;;;0.80;;
78781;SDS011;68126;55.748;48.742;2023-04-06T10:49:31;2.75;;;0.50;;
78781;SDS011;68126;55.748;48.742;2023-04-06T10:54:27;2.40;;;0.72;;
78781;SDS011;68126;55.748;48.742;2023-04-06T10:59:53;1.67;;;0.72;;
78781;SDS011;68126;55.748;48.742;2023-04-06T11:05:18;6.87;;;1.37;;
78781;SDS011;68126;55.748;48.742;2023-04-06T11:10:43;1.90;;;0.80;;
78781;SDS011;68126;55.748;48.742;2023-04-06T11:27:16;13.60;;;0.57;;
78781;SDS011;68126;55.748;48.742;2023-04-06T11:33:01;5.92;;;0.42;;
78781;SDS011;68126;55.748;48.742;2023-04-06T11:38:25;2.30;;;0.45;;
78781;SDS011;68126;55.748;48.742;2023-04-06T11:43:50;6.53;;;0.82;;
78781;SDS011;68126;55.748;48.742;2023-04-06T11:49:15;1.37;;;0.60;;
78781;SDS011;68126;55.748;48.742;2023-04-06T11:54:40;1.82;;;0.23;;
78781;SDS011;68126;55.748;48.742;2023-04-06T12:00:05;6.03;;;0.45;;
78781;SDS011;68126;55.748;48.742;2023-04-06T12:05:32;4.62;;;0.60;;
78781;SDS011;68126;55.748;48.742;2023-04-06T12:10:56;4.00;;;0.60;;
78781;SDS011;68126;55.748;48.742;2023-04-06T12:16:21;3.65;;;0.35;;
78781;SDS011;68126;55.748;48.742;2023-04-06T12:21:48;0.53;;;0.10;;
78781;SDS011;68126;55.748;48.742;2023-04-06T12:27:12;2.75;;;0.47;;
78781;SDS011;68126;55.748;48.742;2023-04-06T12:32:37;1.50;;;0.40;;
78781;SDS011;68126;55.748;48.742;2023-04-06T12:38:02;1.32;;;0.13;;
78781;SDS011;68126;55.748;48.742;2023-04-06T12:43:26;1.40;;;0.35;;
78781;SDS011;68126;55.748;48.742;2023-04-06T12:48:53;4.22;;;0.17;;
78781;SDS011;68126;55.748;48.742;2023-04-06T12:59:44;1.45;;;0.20;;
78781;SDS011;68126;55.748;48.742;2023-04-06T13:05:08;17.80;;;0.98;;
78781;SDS011;68126;55.748;48.742;2023-04-06T13:10:33;2.10;;;0.50;;
78781;SDS011;68126;55.748;48.742;2023-04-06T13:16:17;2.58;;;0.53;;
78781;SDS011;68126;55.748;48.742;2023-04-06T13:21:42;1.60;;;0.50;;
78781;SDS011;68126;55.748;48.742;2023-04-06T13:27:09;2.67;;;0.42;;
78781;SDS011;68126;55.748;48.742;2023-04-06T13:32:33;4.30;;;0.45;;
78781;SDS011;68126;55.748;48.742;2023-04-06T13:37:58;2.17;;;0.23;;
78781;SDS011;68126;55.748;48.742;2023-04-06T13:43:23;4.67;;;0.25;;
78781;SDS011;68126;55.748;48.742;2023-04-06T13:48:49;7.37;;;0.42;;
78781;SDS011;68126;55.748;48.742;2023-04-06T13:54:13;3.62;;;0.70;;
78781;SDS011;68126;55.748;48.742;2023-04-06T13:59:38;1.10;;;0.35;;
78781;SDS011;68126;55.748;48.742;2023-04-06T14:05:03;8.23;;;0.53;;
78781;SDS011;68126;55.748;48.742;2023-04-06T14:10:28;4.53;;;0.53;;
78781;SDS011;68126;55.748;48.742;2023-04-06T14:15:53;1.37;;;0.10;;
78781;SDS011;68126;55.748;48.742;2023-04-06T14:21:19;2.65;;;0.40;;
78781;SDS011;68126;55.748;48.742;2023-04-06T14:26:43;6.87;;;0.37;;
78781;SDS011;68126;55.748;48.742;2023-04-06T14:32:08;3.65;;;0.33;;
78781;SDS011;68126;55.748;48.742;2023-04-06T14:37:33;1.60;;;0.62;;
78781;SDS011;68126;55.748;48.742;2023-04-06T14:42:58;2.10;;;0.55;;
78781;SDS011;68126;55.748;48.742;2023-04-06T14:48:23;3.47;;;0.50;;
78781;SDS011;68126;55.748;48.742;2023-04-06T14:53:48;1.95;;;0.50;;
78781;SDS011;68126;55.748;48.742;2023-04-06T14:59:12;3.10;;;1.00;;
78781;SDS011;68126;55.748;48.742;2023-04-06T15:04:38;6.10;;;0.13;;
78781;SDS011;68126;55.748;48.742;2023-04-06T15:10:03;3.05;;;0.53;;
78781;SDS011;68126;55.748;48.742;2023-04-06T15:15:31;5.33;;;0.78;;
78781;SDS011;68126;55.748;48.742;2023-04-06T15:20:55;5.87;;;0.40;;
78781;SDS011;68126;55.748;48.742;2023-04-06T15:26:20;1.47;;;0.35;;
78781;SDS011;68126;55.748;48.742;2023-04-06T15:31:45;3.22;;;0.60;;
78781;SDS011;68126;55.748;48.742;2023-04-06T15:37:10;2.50;;;0.62;;
78781;SDS011;68126;55.748;48.742;2023-04-06T15:42:34;4.67;;;0.50;;
78781;SDS011;68126;55.748;48.742;2023-04-06T15:48:08;5.28;;;0.95;;
78781;SDS011;68126;55.748;48.742;2023-04-06T15:53:32;2.37;;;0.75;;
78781;SDS011;68126;55.748;48.742;2023-04-06T15:58:57;2.27;;;0.80;;
78781;SDS011;68126;55.748;48.742;2023-04-06T16:04:22;2.95;;;1.25;;
78781;SDS011;68126;55.748;48.742;2023-04-06T16:09:47;1.87;;;1.50;;
78781;SDS011;68126;55.748;48.742;2023-04-06T16:15:11;4.95;;;1.22;;
78781;SDS011;68126;55.748;48.742;2023-04-06T16:20:36;3.25;;;1.32;;
78781;SDS011;68126;55.748;48.742;2023-04-06T16:26:01;1.98;;;0.90;;
78781;SDS011;68126;55.748;48.742;2023-04-06T16:31:26;3.35;;;0.57;;
78781;SDS011;68126;55.748;48.742;2023-04-06T16:36:53;3.95;;;1.50;;
78781;SDS011;68126;55.748;48.742;2023-04-06T16:42:19;2.55;;;1.05;;
78781;SDS011;68126;55.748;48.742;2023-04-06T16:47:43;1.82;;;0.90;;
78781;SDS011;68126;55.748;48.742;2023-04-06T16:53:10;2.15;;;0.80;;
78781;SDS011;68126;55.748;48.742;2023-04-06T16:58:36;1.77;;;1.32;;
78781;SDS011;68126;55.748;48.742;2023-04-06T17:09:27;2.58;;;1.02;;
78781;SDS011;68126;55.748;48.742;2023-04-06T17:14:53;3.50;;;0.82;;
78781;SDS011;68126;55.748;48.742;2023-04-06T17:20:38;2.27;;;0.60;;
78781;SDS011;68126;55.748;48.742;2023-04-06T17:26:04;1.57;;;1.20;;
78781;SDS011;68126;55.748;48.742;2023-04-06T17:31:29;1.55;;;0.80;;
78781;SDS011;68126;55.748;48.742;2023-04-06T17:36:54;1.30;;;1.15;;
78781;SDS011;68126;55.748;48.742;2023-04-06T17:42:18;1.70;;;1.27;;
78781;SDS011;68126;55.748;48.742;2023-04-06T17:47:43;1.12;;;0.55;;
78781;SDS011;68126;55.748;48.742;2023-04-06T17:53:08;1.35;;;1.22;;
78781;SDS011;68126;55.748;48.742;2023-04-06T17:58:32;1.27;;;0.72;;
78781;SDS011;68126;55.748;48.742;2023-04-06T18:04:01;4.17;;;1.35;;
78781;SDS011;68126;55.748;48.742;2023-04-06T18:09:26;1.22;;;0.68;;
78781;SDS011;68126;55.748;48.742;2023-04-06T18:14:50;1.67;;;0.53;;
78781;SDS011;68126;55.748;48.742;2023-04-06T18:20:17;1.52;;;1.12;;
78781;SDS011;68126;55.748;48.742;2023-04-06T18:25:42;1.62;;;1.45;;
78781;SDS011;68126;55.748;48.742;2023-04-06T18:31:10;1.37;;;1.15;;
78781;SDS011;68126;55.748;48.742;2023-04-06T18:36:35;1.25;;;0.80;;
78781;SDS011;68126;55.748;48.742;2023-04-06T18:41:59;1.55;;;0.90;;
78781;SDS011;68126;55.748;48.742;2023-04-06T18:47:24;2.62;;;1.17;;
78781;SDS011;68126;55.748;48.742;2023-04-06T18:52:51;1.77;;;0.70;;
78781;SDS011;68126;55.748;48.742;2023-04-06T19:09:54;0.78;;;0.53;;
78781;SDS011;68126;55.748;48.742;2023-04-06T19:15:19;11.57;;;1.70;;
78781;SDS011;68126;55.748;48.742;2023-04-06T19:20:43;1.25;;;0.72;;
78781;SDS011;68126;55.748;48.742;2023-04-06T19:26:09;3.15;;;0.95;;
78781;SDS011;68126;55.748;48.742;2023-04-06T19:31:34;1.25;;;0.70;;
78781;SDS011;68126;55.748;48.742;2023-04-06T19:37:20;1.75;;;1.17;;
78781;SDS011;68126;55.748;48.742;2023-04-06T19:42:45;1.37;;;1.15;;
78781;SDS011;68126;55.748;48.742;2023-04-06T19:53:38;1.30;;;0.53;;
78781;SDS011;68126;55.748;48.742;2023-04-06T19:59:06;1.77;;;0.68;;
78781;SDS011;68126;55.748;48.742;2023-04-06T20:04:32;2.08;;;0.68;;
78781;SDS011;68126;55.748;48.742;2023-04-06T20:15:42;0.80;;;0.53;;
78781;SDS011;68126;55.748;48.742;2023-04-06T20:21:06;0.95;;;0.62;;
78781;SDS011;68126;55.748;48.742;2023-04-06T20:26:31;2.00;;;0.55;;
78781;SDS011;68126;55.748;48.742;2023-04-06T20:31:56;2.47;;;1.10;;
78781;SDS011;68126;55.748;48.742;2023-04-06T20:37:22;1.77;;;1.22;;
78781;SDS011;68126;55.748;48.742;2023-04-06T20:42:47;1.17;;;0.88;;
78781;SDS011;68126;55.748;48.742;2023-04-06T20:48:12;1.05;;;0.95;;
78781;SDS011;68126;55.748;48.742;2023-04-06T20:53:37;1.98;;;0.62;;
78781;SDS011;68126;55.748;48.742;2023-04-06T20:59:02;1.05;;;0.98;;
78781;SDS011;68126;55.748;48.742;2023-04-06T21:04:27;2.15;;;1.90;;
78781;SDS011;68126;55.748;48.742;2023-04-06T21:09:51;1.25;;;0.45;;
78781;SDS011;68126;55.748;48.742;2023-04-06T21:15:16;1.87;;;1.70;;
78781;SDS011;68126;55.748;48.742;2023-04-06T21:20:42;1.20;;;0.75;;
78781;SDS011;68126;55.748;48.742;2023-04-06T21:26:06;1.20;;;0.62;;
78781;SDS011;68126;55.748;48.742;2023-04-06T21:31:31;2.15;;;0.95;;
78781;SDS011;68126;55.748;48.742;2023-04-06T21:36:58;0.90;;;0.72;;
78781;SDS011;68126;55.748;48.742;2023-04-06T21:42:23;2.12;;;1.60;;
78781;SDS011;68126;55.748;48.742;2023-04-06T21:47:47;1.80;;;1.05;;
78781;SDS011;68126;55.748;48.742;2023-04-06T21:53:12;2.08;;;1.07;;
78781;SDS011;68126;55.748;48.742;2023-04-06T21:58:37;1.12;;;0.68;;
78781;SDS011;68126;55.748;48.742;2023-04-06T22:04:02;1.20;;;1.10;;
78781;SDS011;68126;55.748;48.742;2023-04-06T22:09:27;1.20;;;1.02;;
78781;SDS011;68126;55.748;48.742;2023-04-06T22:14:52;1.05;;;0.88;;
78781;SDS011;68126;55.748;48.742;2023-04-06T22:20:17;1.22;;;0.93;;
78781;SDS011;68126;55.748;48.742;2023-04-06T22:25:41;1.10;;;0.98;;
78781;SDS011;68126;55.748;48.742;2023-04-06T22:31:06;1.65;;;0.90;;
78781;SDS011;68126;55.748;48.742;2023-04-06T22:36:31;0.78;;;0.60;;
78781;SDS011;68126;55.748;48.742;2023-04-06T22:41:56;0.53;;;0.53;;
78781;SDS011;68126;55.748;48.742;2023-04-06T22:47:20;1.75;;;1.25;;
78781;SDS011;68126;55.748;48.742;2023-04-06T22:52:45;0.78;;;0.50;;
78781;SDS011;68126;55.748;48.742;2023-04-06T22:58:10;3.60;;;1.20;;
78781;SDS011;68126;55.748;48.742;2023-04-06T23:03:34;1.47;;;0.90;;
78781;SDS011;68126;55.748;48.742;2023-04-06T23:08:59;1.30;;;0.80;;
78781;SDS011;68126;55.748;48.742;2023-04-06T23:14:24;1.07;;;0.72;;
78781;SDS011;68126;55.748;48.742;2023-04-06T23:19:49;2.17;;;0.60;;
78781;SDS011;68126;55.748;48.742;2023-04-06T23:25:13;0.60;;;0.37;;
78781;SDS011;68126;55.748;48.742;2023-04-06T23:30:38;2.15;;;0.82;;
78781;SDS011;68126;55.748;48.742;2023-04-06T23:36:03;1.72;;;0.80;;
78781;SDS011;68126;55.748;48.742;2023-04-06T23:41:28;1.12;;;0.78;;
78781;SDS011;68126;55.748;48.742;2023-04-06T23:46:53;1.82;;;1.05;;
78781;SDS011;68126;55.748;48.742;2023-04-06T23:52:17;5.62;;;1.60;;
78781;SDS011;68126;55.748;48.742;2023-04-06T23:57:42;1.80;;;1.35;;
